sensor_id;sensor_type;location;lat;lon;timestamp;P1;durP1;ratioP1;P2;durP2;ratioP2
3849;SDS011;1940;51.052;13.678;2024-02-26T00:02:16;23.73;;;12.27;;
3849;SDS011;1940;51.052;13.678;2024-02-26T00:04:42;24.27;;;12.90;;
3849;SDS011;1940;51.052;13.678;2024-02-26T00:07:08;27.10;;;12.97;;
3849;SDS011;1940;51.052;13.678;2024-02-26T00:09:33;23.80;;;12.30;;
3849;SDS011;1940;51.052;13.678;2024-02-26T00:12:02;23.03;;;11.87;;
3849;SDS011;1940;51.052;13.678;2024-02-26T00:14:29;21.40;;;12.37;;
3849;SDS011;1940;51.052;13.678;2024-02-26T00:16:54;21.70;;;12.33;;
3849;SDS011;1940;51.052;13.678;2024-02-26T00:19:20;21.53;;;12.00;;
3849;SDS011;1940;51.052;13.678;2024-02-26T00:21:45;24.10;;;11.73;;
3849;SDS011;1940;51.052;13.678;2024-02-26T00:24:11;22.50;;;12.10;;
3849;SDS011;1940;51.052;13.678;2024-02-26T00:26:36;22.80;;;11.90;;
3849;SDS011;1940;51.052;13.678;2024-02-26T00:29:02;24.63;;;13.00;;
3849;SDS011;1940;51.052;13.678;2024-02-26T00:31:28;25.67;;;12.63;;
3849;SDS011;1940;51.052;13.678;2024-02-26T00:33:53;25.70;;;13.80;;
3849;SDS011;1940;51.052;13.678;2024-02-26T00:36:19;25.83;;;12.83;;
3849;SDS011;1940;51.052;13.678;2024-02-26T00:38:44;26.87;;;13.27;;
3849;SDS011;1940;51.052;13.678;2024-02-26T00:41:15;26.13;;;13.90;;
3849;SDS011;1940;51.052;13.678;2024-02-26T00:43:44;23.80;;;12.50;;
3849;SDS011;1940;51.052;13.678;2024-02-26T00:46:10;25.80;;;13.20;;
3849;SDS011;1940;51.052;13.678;2024-02-26T00:48:35;24.87;;;12.90;;
3849;SDS011;1940;51.052;13.678;2024-02-26T00:51:02;29.53;;;14.03;;
3849;SDS011;1940;51.052;13.678;2024-02-26T00:53:30;26.37;;;13.57;;
3849;SDS011;1940;51.052;13.678;2024-02-26T00:55:55;23.17;;;12.40;;
3849;SDS011;1940;51.052;13.678;2024-02-26T00:58:21;29.10;;;14.80;;
3849;SDS011;1940;51.052;13.678;2024-02-26T01:00:46;24.20;;;13.67;;
3849;SDS011;1940;51.052;13.678;2024-02-26T01:03:12;24.00;;;13.30;;
3849;SDS011;1940;51.052;13.678;2024-02-26T01:05:37;26.30;;;13.40;;
3849;SDS011;1940;51.052;13.678;2024-02-26T01:08:03;23.77;;;13.07;;
3849;SDS011;1940;51.052;13.678;2024-02-26T01:10:29;41.27;;;13.57;;
3849;SDS011;1940;51.052;13.678;2024-02-26T01:12:54;29.23;;;13.87;;
3849;SDS011;1940;51.052;13.678;2024-02-26T01:15:20;25.03;;;13.67;;
3849;SDS011;1940;51.052;13.678;2024-02-26T01:17:48;27.37;;;13.00;;
3849;SDS011;1940;51.052;13.678;2024-02-26T01:20:14;26.03;;;13.83;;
3849;SDS011;1940;51.052;13.678;2024-02-26T01:22:40;26.13;;;12.40;;
3849;SDS011;1940;51.052;13.678;2024-02-26T01:25:05;23.80;;;11.80;;
3849;SDS011;1940;51.052;13.678;2024-02-26T01:27:32;26.80;;;12.70;;
3849;SDS011;1940;51.052;13.678;2024-02-26T01:29:58;27.33;;;13.23;;
3849;SDS011;1940;51.052;13.678;2024-02-26T01:32:23;24.97;;;13.10;;
3849;SDS011;1940;51.052;13.678;2024-02-26T01:34:48;24.80;;;12.27;;
3849;SDS011;1940;51.052;13.678;2024-02-26T01:37:14;27.00;;;13.67;;
3849;SDS011;1940;51.052;13.678;2024-02-26T01:39:39;22.10;;;12.03;;
3849;SDS011;1940;51.052;13.678;2024-02-26T01:42:06;24.90;;;12.03;;
3849;SDS011;1940;51.052;13.678;2024-02-26T01:44:32;24.13;;;12.57;;
3849;SDS011;1940;51.052;13.678;2024-02-26T01:46:58;25.40;;;13.17;;
3849;SDS011;1940;51.052;13.678;2024-02-26T01:49:24;25.40;;;12.97;;
3849;SDS011;1940;51.052;13.678;2024-02-26T01:51:49;24.37;;;12.90;;
3849;SDS011;1940;51.052;13.678;2024-02-26T01:54:15;25.00;;;12.57;;
3849;SDS011;1940;51.052;13.678;2024-02-26T01:56:41;22.00;;;12.40;;
3849;SDS011;1940;51.052;13.678;2024-02-26T01:59:06;26.43;;;13.53;;
3849;SDS011;1940;51.052;13.678;2024-02-26T02:01:33;25.87;;;13.20;;
3849;SDS011;1940;51.052;13.678;2024-02-26T02:04:00;23.23;;;12.80;;
3849;SDS011;1940;51.052;13.678;2024-02-26T02:06:26;24.20;;;11.83;;
3849;SDS011;1940;51.052;13.678;2024-02-26T02:08:52;25.00;;;13.80;;
3849;SDS011;1940;51.052;13.678;2024-02-26T02:11:19;29.50;;;13.37;;
3849;SDS011;1940;51.052;13.678;2024-02-26T02:13:45;21.03;;;11.50;;
3849;SDS011;1940;51.052;13.678;2024-02-26T02:16:11;22.73;;;12.30;;
3849;SDS011;1940;51.052;13.678;2024-02-26T02:18:36;24.40;;;12.33;;
3849;SDS011;1940;51.052;13.678;2024-02-26T02:21:02;26.63;;;13.13;;
3849;SDS011;1940;51.052;13.678;2024-02-26T02:23:27;21.80;;;12.00;;
3849;SDS011;1940;51.052;13.678;2024-02-26T02:25:53;25.30;;;13.00;;
3849;SDS011;1940;51.052;13.678;2024-02-26T02:28:22;26.93;;;13.63;;
3849;SDS011;1940;51.052;13.678;2024-02-26T02:30:49;24.13;;;12.87;;
3849;SDS011;1940;51.052;13.678;2024-02-26T02:33:15;24.97;;;13.07;;
3849;SDS011;1940;51.052;13.678;2024-02-26T02:35:41;21.53;;;12.07;;
3849;SDS011;1940;51.052;13.678;2024-02-26T02:38:07;25.67;;;13.40;;
3849;SDS011;1940;51.052;13.678;2024-02-26T02:40:32;23.37;;;12.40;;
3849;SDS011;1940;51.052;13.678;2024-02-26T02:42:57;23.60;;;12.23;;
3849;SDS011;1940;51.052;13.678;2024-02-26T02:45:23;26.23;;;13.07;;
3849;SDS011;1940;51.052;13.678;2024-02-26T02:47:49;24.77;;;12.40;;
3849;SDS011;1940;51.052;13.678;2024-02-26T02:50:14;28.43;;;12.63;;
3849;SDS011;1940;51.052;13.678;2024-02-26T02:52:40;25.80;;;12.60;;
3849;SDS011;1940;51.052;13.678;2024-02-26T02:55:05;24.53;;;12.40;;
3849;SDS011;1940;51.052;13.678;2024-02-26T02:57:31;26.60;;;12.40;;
3849;SDS011;1940;51.052;13.678;2024-02-26T02:59:58;24.70;;;12.70;;
3849;SDS011;1940;51.052;13.678;2024-02-26T03:02:23;23.60;;;12.70;;
3849;SDS011;1940;51.052;13.678;2024-02-26T03:04:49;24.20;;;12.30;;
3849;SDS011;1940;51.052;13.678;2024-02-26T03:07:15;22.93;;;11.97;;
3849;SDS011;1940;51.052;13.678;2024-02-26T03:09:41;21.53;;;11.83;;
3849;SDS011;1940;51.052;13.678;2024-02-26T03:12:06;23.30;;;12.00;;
3849;SDS011;1940;51.052;13.678;2024-02-26T03:14:31;24.00;;;12.60;;
3849;SDS011;1940;51.052;13.678;2024-02-26T03:16:57;22.73;;;12.10;;
3849;SDS011;1940;51.052;13.678;2024-02-26T03:19:22;24.77;;;12.50;;
3849;SDS011;1940;51.052;13.678;2024-02-26T03:21:48;21.03;;;11.83;;
3849;SDS011;1940;51.052;13.678;2024-02-26T03:24:14;21.07;;;11.43;;
3849;SDS011;1940;51.052;13.678;2024-02-26T03:26:39;23.90;;;12.10;;
3849;SDS011;1940;51.052;13.678;2024-02-26T03:29:05;23.93;;;12.27;;
3849;SDS011;1940;51.052;13.678;2024-02-26T03:31:30;20.03;;;11.10;;
3849;SDS011;1940;51.052;13.678;2024-02-26T03:33:56;20.03;;;11.43;;
3849;SDS011;1940;51.052;13.678;2024-02-26T03:36:22;23.90;;;12.50;;
3849;SDS011;1940;51.052;13.678;2024-02-26T03:38:47;19.30;;;11.33;;
3849;SDS011;1940;51.052;13.678;2024-02-26T03:41:13;25.27;;;12.07;;
3849;SDS011;1940;51.052;13.678;2024-02-26T03:43:39;21.93;;;11.73;;
3849;SDS011;1940;51.052;13.678;2024-02-26T03:46:07;21.60;;;12.70;;
3849;SDS011;1940;51.052;13.678;2024-02-26T03:48:33;23.73;;;12.57;;
3849;SDS011;1940;51.052;13.678;2024-02-26T03:50:59;24.97;;;12.03;;
3849;SDS011;1940;51.052;13.678;2024-02-26T03:53:25;21.63;;;11.23;;
3849;SDS011;1940;51.052;13.678;2024-02-26T03:55:50;24.83;;;12.70;;
3849;SDS011;1940;51.052;13.678;2024-02-26T03:58:17;23.60;;;12.10;;
3849;SDS011;1940;51.052;13.678;2024-02-26T04:00:43;19.70;;;11.00;;
3849;SDS011;1940;51.052;13.678;2024-02-26T04:03:09;23.87;;;11.80;;
3849;SDS011;1940;51.052;13.678;2024-02-26T04:05:34;27.67;;;12.47;;
3849;SDS011;1940;51.052;13.678;2024-02-26T04:08:00;23.80;;;11.70;;
3849;SDS011;1940;51.052;13.678;2024-02-26T04:10:25;26.97;;;11.20;;
3849;SDS011;1940;51.052;13.678;2024-02-26T04:12:51;21.90;;;12.10;;
3849;SDS011;1940;51.052;13.678;2024-02-26T04:15:17;19.20;;;10.73;;
3849;SDS011;1940;51.052;13.678;2024-02-26T04:17:42;19.87;;;11.03;;
3849;SDS011;1940;51.052;13.678;2024-02-26T04:20:08;22.97;;;12.30;;
3849;SDS011;1940;51.052;13.678;2024-02-26T04:22:37;22.37;;;11.60;;
3849;SDS011;1940;51.052;13.678;2024-02-26T04:25:03;23.73;;;10.60;;
3849;SDS011;1940;51.052;13.678;2024-02-26T04:27:28;25.53;;;11.77;;
3849;SDS011;1940;51.052;13.678;2024-02-26T04:29:54;23.47;;;11.97;;
3849;SDS011;1940;51.052;13.678;2024-02-26T04:32:19;21.37;;;11.07;;
3849;SDS011;1940;51.052;13.678;2024-02-26T04:34:45;24.23;;;11.23;;
3849;SDS011;1940;51.052;13.678;2024-02-26T04:37:11;26.23;;;12.30;;
3849;SDS011;1940;51.052;13.678;2024-02-26T04:39:36;22.47;;;12.40;;
3849;SDS011;1940;51.052;13.678;2024-02-26T04:42:02;25.63;;;11.20;;
3849;SDS011;1940;51.052;13.678;2024-02-26T04:44:28;24.37;;;11.90;;
3849;SDS011;1940;51.052;13.678;2024-02-26T04:46:55;25.70;;;12.40;;
3849;SDS011;1940;51.052;13.678;2024-02-26T04:49:20;21.27;;;11.23;;
3849;SDS011;1940;51.052;13.678;2024-02-26T04:51:46;22.33;;;11.80;;
3849;SDS011;1940;51.052;13.678;2024-02-26T04:54:13;21.60;;;11.97;;
3849;SDS011;1940;51.052;13.678;2024-02-26T04:56:38;21.70;;;12.10;;
3849;SDS011;1940;51.052;13.678;2024-02-26T04:59:04;20.83;;;10.87;;
3849;SDS011;1940;51.052;13.678;2024-02-26T05:01:29;23.57;;;12.00;;
3849;SDS011;1940;51.052;13.678;2024-02-26T05:03:55;23.63;;;12.17;;
3849;SDS011;1940;51.052;13.678;2024-02-26T05:06:20;22.43;;;11.57;;
3849;SDS011;1940;51.052;13.678;2024-02-26T05:08:46;19.73;;;10.50;;
3849;SDS011;1940;51.052;13.678;2024-02-26T05:11:11;27.17;;;10.93;;
3849;SDS011;1940;51.052;13.678;2024-02-26T05:13:37;20.80;;;12.20;;
3849;SDS011;1940;51.052;13.678;2024-02-26T05:16:02;26.13;;;12.57;;
3849;SDS011;1940;51.052;13.678;2024-02-26T05:18:28;26.60;;;12.07;;
3849;SDS011;1940;51.052;13.678;2024-02-26T05:20:53;26.77;;;12.47;;
3849;SDS011;1940;51.052;13.678;2024-02-26T05:23:19;25.60;;;12.90;;
3849;SDS011;1940;51.052;13.678;2024-02-26T05:25:44;23.00;;;12.43;;
3849;SDS011;1940;51.052;13.678;2024-02-26T05:28:12;24.43;;;12.27;;
3849;SDS011;1940;51.052;13.678;2024-02-26T05:30:37;22.13;;;12.27;;
3849;SDS011;1940;51.052;13.678;2024-02-26T05:33:05;22.73;;;11.90;;
3849;SDS011;1940;51.052;13.678;2024-02-26T05:35:30;22.50;;;11.10;;
3849;SDS011;1940;51.052;13.678;2024-02-26T05:37:56;22.40;;;11.83;;
3849;SDS011;1940;51.052;13.678;2024-02-26T05:40:21;22.00;;;10.90;;
3849;SDS011;1940;51.052;13.678;2024-02-26T05:42:46;21.83;;;11.90;;
3849;SDS011;1940;51.052;13.678;2024-02-26T05:45:14;22.30;;;11.80;;
3849;SDS011;1940;51.052;13.678;2024-02-26T05:47:39;31.97;;;16.23;;
3849;SDS011;1940;51.052;13.678;2024-02-26T05:50:08;30.47;;;15.60;;
3849;SDS011;1940;51.052;13.678;2024-02-26T05:52:37;26.70;;;11.93;;
3849;SDS011;1940;51.052;13.678;2024-02-26T05:55:06;22.50;;;11.50;;
3849;SDS011;1940;51.052;13.678;2024-02-26T05:57:33;26.20;;;10.20;;
3849;SDS011;1940;51.052;13.678;2024-02-26T05:59:59;22.10;;;11.87;;
3849;SDS011;1940;51.052;13.678;2024-02-26T06:02:30;28.40;;;12.83;;
3849;SDS011;1940;51.052;13.678;2024-02-26T06:04:56;39.57;;;20.37;;
3849;SDS011;1940;51.052;13.678;2024-02-26T06:07:22;22.00;;;11.80;;
3849;SDS011;1940;51.052;13.678;2024-02-26T06:09:48;30.17;;;14.87;;
3849;SDS011;1940;51.052;13.678;2024-02-26T06:12:13;29.90;;;13.53;;
3849;SDS011;1940;51.052;13.678;2024-02-26T06:14:39;31.33;;;12.73;;
3849;SDS011;1940;51.052;13.678;2024-02-26T06:17:04;21.40;;;11.70;;
3849;SDS011;1940;51.052;13.678;2024-02-26T06:19:30;26.10;;;12.80;;
3849;SDS011;1940;51.052;13.678;2024-02-26T06:21:56;22.27;;;12.43;;
3849;SDS011;1940;51.052;13.678;2024-02-26T06:24:21;25.73;;;12.97;;
3849;SDS011;1940;51.052;13.678;2024-02-26T06:26:47;25.30;;;11.67;;
3849;SDS011;1940;51.052;13.678;2024-02-26T06:29:13;24.20;;;12.03;;
3849;SDS011;1940;51.052;13.678;2024-02-26T06:31:38;21.10;;;11.40;;
3849;SDS011;1940;51.052;13.678;2024-02-26T06:34:04;26.10;;;11.97;;
3849;SDS011;1940;51.052;13.678;2024-02-26T06:36:29;25.50;;;13.37;;
3849;SDS011;1940;51.052;13.678;2024-02-26T06:38:56;19.67;;;11.40;;
3849;SDS011;1940;51.052;13.678;2024-02-26T06:41:22;20.80;;;10.53;;
3849;SDS011;1940;51.052;13.678;2024-02-26T06:43:52;20.83;;;11.60;;
3849;SDS011;1940;51.052;13.678;2024-02-26T06:46:18;20.20;;;11.40;;
3849;SDS011;1940;51.052;13.678;2024-02-26T06:48:44;19.00;;;10.60;;
3849;SDS011;1940;51.052;13.678;2024-02-26T06:51:09;23.50;;;12.80;;
3849;SDS011;1940;51.052;13.678;2024-02-26T06:53:35;23.43;;;11.70;;
3849;SDS011;1940;51.052;13.678;2024-02-26T06:56:00;21.53;;;11.80;;
3849;SDS011;1940;51.052;13.678;2024-02-26T06:58:25;20.30;;;11.17;;
3849;SDS011;1940;51.052;13.678;2024-02-26T07:00:51;25.33;;;11.97;;
3849;SDS011;1940;51.052;13.678;2024-02-26T07:03:16;23.47;;;11.90;;
3849;SDS011;1940;51.052;13.678;2024-02-26T07:05:42;24.73;;;12.17;;
3849;SDS011;1940;51.052;13.678;2024-02-26T07:08:10;18.93;;;10.37;;
3849;SDS011;1940;51.052;13.678;2024-02-26T07:10:35;21.00;;;11.30;;
3849;SDS011;1940;51.052;13.678;2024-02-26T07:13:01;28.50;;;12.20;;
3849;SDS011;1940;51.052;13.678;2024-02-26T07:15:26;26.97;;;11.77;;
3849;SDS011;1940;51.052;13.678;2024-02-26T07:17:52;21.33;;;11.80;;
3849;SDS011;1940;51.052;13.678;2024-02-26T07:20:17;21.80;;;11.10;;
3849;SDS011;1940;51.052;13.678;2024-02-26T07:22:43;22.57;;;11.43;;
3849;SDS011;1940;51.052;13.678;2024-02-26T07:25:09;28.13;;;11.00;;
3849;SDS011;1940;51.052;13.678;2024-02-26T07:27:38;18.93;;;11.20;;
3849;SDS011;1940;51.052;13.678;2024-02-26T07:30:04;19.17;;;10.63;;
3849;SDS011;1940;51.052;13.678;2024-02-26T07:32:30;21.00;;;10.53;;
3849;SDS011;1940;51.052;13.678;2024-02-26T07:34:55;34.37;;;12.07;;
3849;SDS011;1940;51.052;13.678;2024-02-26T07:37:20;21.20;;;12.20;;
3849;SDS011;1940;51.052;13.678;2024-02-26T07:39:46;21.50;;;11.23;;
3849;SDS011;1940;51.052;13.678;2024-02-26T07:42:11;24.13;;;11.47;;
3849;SDS011;1940;51.052;13.678;2024-02-26T07:44:37;21.70;;;11.23;;
3849;SDS011;1940;51.052;13.678;2024-02-26T07:47:03;20.07;;;10.67;;
3849;SDS011;1940;51.052;13.678;2024-02-26T07:49:28;24.33;;;10.80;;
3849;SDS011;1940;51.052;13.678;2024-02-26T07:51:54;20.20;;;10.20;;
3849;SDS011;1940;51.052;13.678;2024-02-26T07:54:22;16.40;;;9.50;;
3849;SDS011;1940;51.052;13.678;2024-02-26T07:56:48;21.07;;;9.30;;
3849;SDS011;1940;51.052;13.678;2024-02-26T07:59:13;16.00;;;8.83;;
3849;SDS011;1940;51.052;13.678;2024-02-26T08:01:39;17.20;;;8.77;;
3849;SDS011;1940;51.052;13.678;2024-02-26T08:04:06;12.37;;;6.97;;
3849;SDS011;1940;51.052;13.678;2024-02-26T08:06:32;13.10;;;7.47;;
3849;SDS011;1940;51.052;13.678;2024-02-26T08:08:57;13.53;;;7.07;;
3849;SDS011;1940;51.052;13.678;2024-02-26T08:11:23;14.43;;;7.30;;
3849;SDS011;1940;51.052;13.678;2024-02-26T08:13:49;12.33;;;7.43;;
3849;SDS011;1940;51.052;13.678;2024-02-26T08:16:15;14.50;;;7.93;;
3849;SDS011;1940;51.052;13.678;2024-02-26T08:18:40;13.33;;;6.93;;
3849;SDS011;1940;51.052;13.678;2024-02-26T08:21:06;15.67;;;8.13;;
3849;SDS011;1940;51.052;13.678;2024-02-26T08:23:31;12.23;;;7.30;;
3849;SDS011;1940;51.052;13.678;2024-02-26T08:25:57;11.20;;;7.17;;
3849;SDS011;1940;51.052;13.678;2024-02-26T08:28:22;10.70;;;6.73;;
3849;SDS011;1940;51.052;13.678;2024-02-26T08:30:48;17.63;;;7.30;;
3849;SDS011;1940;51.052;13.678;2024-02-26T08:33:13;12.00;;;7.47;;
3849;SDS011;1940;51.052;13.678;2024-02-26T08:35:39;11.70;;;6.87;;
3849;SDS011;1940;51.052;13.678;2024-02-26T08:38:04;13.90;;;8.10;;
3849;SDS011;1940;51.052;13.678;2024-02-26T08:40:30;10.90;;;6.77;;
3849;SDS011;1940;51.052;13.678;2024-02-26T08:42:55;11.10;;;6.23;;
3849;SDS011;1940;51.052;13.678;2024-02-26T08:45:21;13.40;;;7.97;;
3849;SDS011;1940;51.052;13.678;2024-02-26T08:47:46;11.93;;;7.50;;
3849;SDS011;1940;51.052;13.678;2024-02-26T08:50:13;11.23;;;6.47;;
3849;SDS011;1940;51.052;13.678;2024-02-26T08:52:39;12.13;;;6.80;;
3849;SDS011;1940;51.052;13.678;2024-02-26T08:55:05;11.47;;;7.27;;
3849;SDS011;1940;51.052;13.678;2024-02-26T08:57:33;15.47;;;7.30;;
3849;SDS011;1940;51.052;13.678;2024-02-26T08:59:59;11.57;;;6.77;;
3849;SDS011;1940;51.052;13.678;2024-02-26T09:02:25;10.60;;;6.93;;
3849;SDS011;1940;51.052;13.678;2024-02-26T09:04:51;10.47;;;6.57;;
3849;SDS011;1940;51.052;13.678;2024-02-26T09:07:19;11.20;;;6.60;;
3849;SDS011;1940;51.052;13.678;2024-02-26T09:09:44;13.13;;;7.23;;
3849;SDS011;1940;51.052;13.678;2024-02-26T09:12:10;10.03;;;6.33;;
3849;SDS011;1940;51.052;13.678;2024-02-26T09:14:36;15.30;;;7.60;;
3849;SDS011;1940;51.052;13.678;2024-02-26T09:17:01;11.50;;;6.90;;
3849;SDS011;1940;51.052;13.678;2024-02-26T09:19:27;13.80;;;7.23;;
3849;SDS011;1940;51.052;13.678;2024-02-26T09:21:52;11.73;;;7.00;;
3849;SDS011;1940;51.052;13.678;2024-02-26T09:24:22;14.70;;;8.10;;
3849;SDS011;1940;51.052;13.678;2024-02-26T09:26:48;12.80;;;7.80;;
3849;SDS011;1940;51.052;13.678;2024-02-26T09:29:13;12.67;;;7.70;;
3849;SDS011;1940;51.052;13.678;2024-02-26T09:31:39;11.10;;;7.57;;
3849;SDS011;1940;51.052;13.678;2024-02-26T09:34:06;12.60;;;7.97;;
3849;SDS011;1940;51.052;13.678;2024-02-26T09:36:32;11.57;;;7.67;;
3849;SDS011;1940;51.052;13.678;2024-02-26T09:38:58;13.50;;;7.80;;
3849;SDS011;1940;51.052;13.678;2024-02-26T09:41:24;14.53;;;8.37;;
3849;SDS011;1940;51.052;13.678;2024-02-26T09:43:54;13.63;;;7.83;;
3849;SDS011;1940;51.052;13.678;2024-02-26T09:46:22;12.30;;;7.60;;
3849;SDS011;1940;51.052;13.678;2024-02-26T09:48:50;13.87;;;8.00;;
3849;SDS011;1940;51.052;13.678;2024-02-26T09:51:16;13.10;;;7.53;;
3849;SDS011;1940;51.052;13.678;2024-02-26T09:53:43;15.77;;;7.80;;
3849;SDS011;1940;51.052;13.678;2024-02-26T09:56:11;15.40;;;8.37;;
3849;SDS011;1940;51.052;13.678;2024-02-26T09:58:38;14.23;;;8.00;;
3849;SDS011;1940;51.052;13.678;2024-02-26T10:01:05;10.10;;;6.47;;
3849;SDS011;1940;51.052;13.678;2024-02-26T10:03:38;11.40;;;6.83;;
3849;SDS011;1940;51.052;13.678;2024-02-26T10:06:06;9.43;;;6.60;;
3849;SDS011;1940;51.052;13.678;2024-02-26T10:08:33;11.20;;;7.03;;
3849;SDS011;1940;51.052;13.678;2024-02-26T10:11:06;12.80;;;7.43;;
3849;SDS011;1940;51.052;13.678;2024-02-26T10:13:33;11.33;;;7.10;;
3849;SDS011;1940;51.052;13.678;2024-02-26T10:16:00;11.00;;;7.37;;
3849;SDS011;1940;51.052;13.678;2024-02-26T10:18:28;12.13;;;6.80;;
3849;SDS011;1940;51.052;13.678;2024-02-26T10:21:17;11.10;;;6.93;;
3849;SDS011;1940;51.052;13.678;2024-02-26T10:23:43;11.33;;;7.40;;
3849;SDS011;1940;51.052;13.678;2024-02-26T10:26:10;9.30;;;6.27;;
3849;SDS011;1940;51.052;13.678;2024-02-26T10:28:37;10.53;;;6.87;;
3849;SDS011;1940;51.052;13.678;2024-02-26T10:31:04;11.70;;;7.73;;
3849;SDS011;1940;51.052;13.678;2024-02-26T10:33:29;11.63;;;7.83;;
3849;SDS011;1940;51.052;13.678;2024-02-26T10:35:58;9.97;;;7.00;;
3849;SDS011;1940;51.052;13.678;2024-02-26T10:38:23;23.87;;;8.00;;
3849;SDS011;1940;51.052;13.678;2024-02-26T10:40:49;10.57;;;7.40;;
3849;SDS011;1940;51.052;13.678;2024-02-26T10:43:15;15.07;;;7.80;;
3849;SDS011;1940;51.052;13.678;2024-02-26T10:45:41;12.20;;;6.93;;
3849;SDS011;1940;51.052;13.678;2024-02-26T10:48:12;14.50;;;7.03;;
3849;SDS011;1940;51.052;13.678;2024-02-26T10:50:38;10.07;;;6.80;;
3849;SDS011;1940;51.052;13.678;2024-02-26T10:53:05;11.23;;;7.23;;
3849;SDS011;1940;51.052;13.678;2024-02-26T10:55:40;11.93;;;7.60;;
3849;SDS011;1940;51.052;13.678;2024-02-26T10:58:08;12.27;;;8.00;;
3849;SDS011;1940;51.052;13.678;2024-02-26T11:00:35;11.50;;;7.87;;
3849;SDS011;1940;51.052;13.678;2024-02-26T11:03:03;10.93;;;7.00;;
3849;SDS011;1940;51.052;13.678;2024-02-26T11:05:30;12.83;;;7.20;;
3849;SDS011;1940;51.052;13.678;2024-02-26T11:07:58;11.80;;;7.40;;
3849;SDS011;1940;51.052;13.678;2024-02-26T11:10:25;11.13;;;7.00;;
3849;SDS011;1940;51.052;13.678;2024-02-26T11:12:53;10.80;;;7.13;;
3849;SDS011;1940;51.052;13.678;2024-02-26T11:15:20;12.47;;;7.20;;
3849;SDS011;1940;51.052;13.678;2024-02-26T11:17:47;12.87;;;8.17;;
3849;SDS011;1940;51.052;13.678;2024-02-26T11:20:12;11.90;;;7.97;;
3849;SDS011;1940;51.052;13.678;2024-02-26T11:22:39;13.70;;;7.90;;
3849;SDS011;1940;51.052;13.678;2024-02-26T11:25:05;12.47;;;7.73;;
3849;SDS011;1940;51.052;13.678;2024-02-26T11:27:34;12.00;;;7.50;;
3849;SDS011;1940;51.052;13.678;2024-02-26T11:30:03;13.90;;;7.43;;
3849;SDS011;1940;51.052;13.678;2024-02-26T11:32:34;11.73;;;7.60;;
3849;SDS011;1940;51.052;13.678;2024-02-26T11:35:00;13.80;;;8.17;;
3849;SDS011;1940;51.052;13.678;2024-02-26T11:37:25;12.90;;;8.20;;
3849;SDS011;1940;51.052;13.678;2024-02-26T11:39:51;11.70;;;7.60;;
3849;SDS011;1940;51.052;13.678;2024-02-26T11:42:17;13.33;;;7.83;;
3849;SDS011;1940;51.052;13.678;2024-02-26T11:44:48;14.67;;;7.73;;
3849;SDS011;1940;51.052;13.678;2024-02-26T11:47:17;13.40;;;7.40;;
3849;SDS011;1940;51.052;13.678;2024-02-26T11:49:44;14.20;;;7.47;;
3849;SDS011;1940;51.052;13.678;2024-02-26T11:52:09;14.23;;;8.47;;
3849;SDS011;1940;51.052;13.678;2024-02-26T11:54:46;14.20;;;7.60;;
3849;SDS011;1940;51.052;13.678;2024-02-26T11:57:22;12.63;;;8.00;;
3849;SDS011;1940;51.052;13.678;2024-02-26T11:59:52;12.47;;;8.10;;
3849;SDS011;1940;51.052;13.678;2024-02-26T12:05:09;12.67;;;8.17;;
3849;SDS011;1940;51.052;13.678;2024-02-26T12:08:15;11.40;;;8.10;;
3849;SDS011;1940;51.052;13.678;2024-02-26T12:10:38;13.47;;;8.97;;
3849;SDS011;1940;51.052;13.678;2024-02-26T12:13:08;15.03;;;7.80;;
3849;SDS011;1940;51.052;13.678;2024-02-26T12:15:40;13.43;;;7.70;;
3849;SDS011;1940;51.052;13.678;2024-02-26T12:18:10;11.17;;;7.30;;
3849;SDS011;1940;51.052;13.678;2024-02-26T12:20:41;16.73;;;8.40;;
3849;SDS011;1940;51.052;13.678;2024-02-26T12:23:09;12.70;;;7.50;;
3849;SDS011;1940;51.052;13.678;2024-02-26T12:25:40;14.60;;;7.90;;
3849;SDS011;1940;51.052;13.678;2024-02-26T12:28:06;12.20;;;6.87;;
3849;SDS011;1940;51.052;13.678;2024-02-26T12:30:32;15.17;;;8.03;;
3849;SDS011;1940;51.052;13.678;2024-02-26T12:32:58;13.83;;;8.17;;
3849;SDS011;1940;51.052;13.678;2024-02-26T12:35:25;12.03;;;7.33;;
3849;SDS011;1940;51.052;13.678;2024-02-26T12:37:52;15.10;;;7.73;;
3849;SDS011;1940;51.052;13.678;2024-02-26T12:40:18;11.93;;;7.33;;
3849;SDS011;1940;51.052;13.678;2024-02-26T12:42:44;11.83;;;7.10;;
3849;SDS011;1940;51.052;13.678;2024-02-26T12:45:11;13.77;;;7.63;;
3849;SDS011;1940;51.052;13.678;2024-02-26T12:47:41;12.53;;;7.90;;
3849;SDS011;1940;51.052;13.678;2024-02-26T12:50:14;11.47;;;7.50;;
3849;SDS011;1940;51.052;13.678;2024-02-26T12:52:44;13.30;;;7.57;;
3849;SDS011;1940;51.052;13.678;2024-02-26T12:55:16;19.73;;;8.83;;
3849;SDS011;1940;51.052;13.678;2024-02-26T12:57:43;14.53;;;8.50;;
3849;SDS011;1940;51.052;13.678;2024-02-26T13:00:14;11.83;;;7.40;;
3849;SDS011;1940;51.052;13.678;2024-02-26T13:02:41;13.73;;;7.57;;
3849;SDS011;1940;51.052;13.678;2024-02-26T13:05:09;13.00;;;8.00;;
3849;SDS011;1940;51.052;13.678;2024-02-26T13:07:40;14.53;;;7.63;;
3849;SDS011;1940;51.052;13.678;2024-02-26T13:10:07;13.07;;;7.70;;
3849;SDS011;1940;51.052;13.678;2024-02-26T13:12:33;12.53;;;8.00;;
3849;SDS011;1940;51.052;13.678;2024-02-26T13:15:02;11.70;;;7.40;;
3849;SDS011;1940;51.052;13.678;2024-02-26T13:17:31;13.53;;;7.40;;
3849;SDS011;1940;51.052;13.678;2024-02-26T13:19:57;14.90;;;7.07;;
3849;SDS011;1940;51.052;13.678;2024-02-26T13:22:23;9.70;;;6.33;;
3849;SDS011;1940;51.052;13.678;2024-02-26T13:24:55;11.00;;;7.30;;
3849;SDS011;1940;51.052;13.678;2024-02-26T13:27:24;11.70;;;7.50;;
3849;SDS011;1940;51.052;13.678;2024-02-26T13:30:03;11.27;;;7.40;;
3849;SDS011;1940;51.052;13.678;2024-02-26T13:32:36;14.63;;;7.07;;
3849;SDS011;1940;51.052;13.678;2024-02-26T13:35:10;10.60;;;7.03;;
3849;SDS011;1940;51.052;13.678;2024-02-26T13:37:36;11.70;;;7.70;;
3849;SDS011;1940;51.052;13.678;2024-02-26T13:40:09;12.63;;;7.37;;
3849;SDS011;1940;51.052;13.678;2024-02-26T13:42:38;13.77;;;7.57;;
3849;SDS011;1940;51.052;13.678;2024-02-26T13:45:05;11.10;;;6.93;;
3849;SDS011;1940;51.052;13.678;2024-02-26T13:47:35;15.37;;;8.07;;
3849;SDS011;1940;51.052;13.678;2024-02-26T13:50:01;12.87;;;7.27;;
3849;SDS011;1940;51.052;13.678;2024-02-26T13:52:27;11.97;;;7.30;;
3849;SDS011;1940;51.052;13.678;2024-02-26T13:54:53;12.60;;;6.93;;
3849;SDS011;1940;51.052;13.678;2024-02-26T13:57:19;11.53;;;7.00;;
3849;SDS011;1940;51.052;13.678;2024-02-26T13:59:44;12.90;;;7.57;;
3849;SDS011;1940;51.052;13.678;2024-02-26T14:02:10;12.90;;;7.30;;
3849;SDS011;1940;51.052;13.678;2024-02-26T14:04:36;11.07;;;7.13;;
3849;SDS011;1940;51.052;13.678;2024-02-26T14:07:02;14.20;;;7.40;;
3849;SDS011;1940;51.052;13.678;2024-02-26T14:09:28;9.70;;;6.50;;
3849;SDS011;1940;51.052;13.678;2024-02-26T14:11:54;12.73;;;7.10;;
3849;SDS011;1940;51.052;13.678;2024-02-26T14:14:19;12.50;;;6.90;;
3849;SDS011;1940;51.052;13.678;2024-02-26T14:16:45;13.43;;;7.03;;
3849;SDS011;1940;51.052;13.678;2024-02-26T14:19:10;14.50;;;6.73;;
3849;SDS011;1940;51.052;13.678;2024-02-26T14:21:36;10.40;;;6.80;;
3849;SDS011;1940;51.052;13.678;2024-02-26T14:24:02;11.80;;;7.43;;
3849;SDS011;1940;51.052;13.678;2024-02-26T14:26:28;11.97;;;6.73;;
3849;SDS011;1940;51.052;13.678;2024-02-26T14:28:54;12.13;;;7.30;;
3849;SDS011;1940;51.052;13.678;2024-02-26T14:31:22;12.23;;;6.90;;
3849;SDS011;1940;51.052;13.678;2024-02-26T14:33:48;11.10;;;6.23;;
3849;SDS011;1940;51.052;13.678;2024-02-26T14:36:17;11.03;;;7.27;;
3849;SDS011;1940;51.052;13.678;2024-02-26T14:38:43;9.60;;;6.50;;
3849;SDS011;1940;51.052;13.678;2024-02-26T14:41:08;9.80;;;6.20;;